sensor_id;sensor_type;location;lat;lon;timestamp;P1;durP1;ratioP1;P2;durP2;ratioP2
40501;SDS011;29631;49.168;9.848;2023-05-16T00:00:25;5.68;;;5.22;;
40501;SDS011;29631;49.168;9.848;2023-05-16T00:02:50;4.32;;;4.03;;
40501;SDS011;29631;49.168;9.848;2023-05-16T00:05:16;3.95;;;3.75;;
40501;SDS011;29631;49.168;9.848;2023-05-16T00:07:42;4.53;;;3.97;;
40501;SDS011;29631;49.168;9.848;2023-05-16T00:10:11;4.93;;;4.63;;
40501;SDS011;29631;49.168;9.848;2023-05-16T00:12:37;5.72;;;5.32;;
40501;SDS011;29631;49.168;9.848;2023-05-16T00:15:06;5.80;;;5.40;;
40501;SDS011;29631;49.168;9.848;2023-05-16T00:17:36;6.13;;;5.72;;
40501;SDS011;29631;49.168;9.848;2023-05-16T00:20:02;6.30;;;5.90;;
40501;SDS011;29631;49.168;9.848;2023-05-16T00:22:35;5.88;;;5.47;;
40501;SDS011;29631;49.168;9.848;2023-05-16T00:25:01;5.90;;;5.47;;
40501;SDS011;29631;49.168;9.848;2023-05-16T00:27:28;6.10;;;5.70;;
40501;SDS011;29631;49.168;9.848;2023-05-16T00:29:54;6.30;;;5.80;;
40501;SDS011;29631;49.168;9.848;2023-05-16T00:32:20;6.45;;;6.05;;
40501;SDS011;29631;49.168;9.848;2023-05-16T00:34:46;6.55;;;5.95;;
40501;SDS011;29631;49.168;9.848;2023-05-16T00:37:12;6.03;;;5.63;;
40501;SDS011;29631;49.168;9.848;2023-05-16T00:39:38;5.90;;;5.50;;
40501;SDS011;29631;49.168;9.848;2023-05-16T00:42:04;6.20;;;5.80;;
40501;SDS011;29631;49.168;9.848;2023-05-16T00:44:30;5.85;;;5.35;;
40501;SDS011;29631;49.168;9.848;2023-05-16T00:46:55;6.22;;;5.82;;
40501;SDS011;29631;49.168;9.848;2023-05-16T00:49:22;6.00;;;5.60;;
40501;SDS011;29631;49.168;9.848;2023-05-16T00:51:48;5.25;;;4.90;;
40501;SDS011;29631;49.168;9.848;2023-05-16T00:54:14;6.20;;;5.80;;
40501;SDS011;29631;49.168;9.848;2023-05-16T00:56:40;5.50;;;5.10;;
40501;SDS011;29631;49.168;9.848;2023-05-16T00:59:05;5.22;;;4.88;;
40501;SDS011;29631;49.168;9.848;2023-05-16T01:01:31;5.05;;;4.72;;
40501;SDS011;29631;49.168;9.848;2023-05-16T01:03:59;5.88;;;5.38;;
40501;SDS011;29631;49.168;9.848;2023-05-16T01:06:25;6.47;;;5.97;;
40501;SDS011;29631;49.168;9.848;2023-05-16T01:08:50;5.70;;;5.30;;
40501;SDS011;29631;49.168;9.848;2023-05-16T01:11:21;5.03;;;4.72;;
40501;SDS011;29631;49.168;9.848;2023-05-16T01:17:19;4.80;;;4.40;;
40501;SDS011;29631;49.168;9.848;2023-05-16T01:20:30;4.70;;;4.40;;
40501;SDS011;29631;49.168;9.848;2023-05-16T01:23:46;4.82;;;4.53;;
40501;SDS011;29631;49.168;9.848;2023-05-16T01:26:23;5.18;;;4.78;;
40501;SDS011;29631;49.168;9.848;2023-05-16T01:28:52;5.57;;;5.18;;
40501;SDS011;29631;49.168;9.848;2023-05-16T01:31:22;5.43;;;5.03;;
40501;SDS011;29631;49.168;9.848;2023-05-16T01:33:48;5.10;;;4.80;;
40501;SDS011;29631;49.168;9.848;2023-05-16T01:36:24;5.03;;;4.70;;
40501;SDS011;29631;49.168;9.848;2023-05-16T01:39:18;5.60;;;5.20;;
40501;SDS011;29631;49.168;9.848;2023-05-16T01:44:40;5.72;;;5.32;;
40501;SDS011;29631;49.168;9.848;2023-05-16T01:47:15;5.95;;;5.53;;
40501;SDS011;29631;49.168;9.848;2023-05-16T01:52:32;5.20;;;4.80;;
40501;SDS011;29631;49.168;9.848;2023-05-16T01:55:09;4.35;;;4.13;;
40501;SDS011;29631;49.168;9.848;2023-05-16T01:57:42;5.20;;;4.80;;
40501;SDS011;29631;49.168;9.848;2023-05-16T02:00:10;5.63;;;5.13;;
40501;SDS011;29631;49.168;9.848;2023-05-16T02:02:37;5.97;;;5.57;;
40501;SDS011;29631;49.168;9.848;2023-05-16T02:05:03;6.03;;;5.38;;
40501;SDS011;29631;49.168;9.848;2023-05-16T02:07:28;6.07;;;5.68;;
40501;SDS011;29631;49.168;9.848;2023-05-16T02:09:54;5.47;;;5.18;;
40501;SDS011;29631;49.168;9.848;2023-05-16T02:12:20;5.68;;;5.28;;
40501;SDS011;29631;49.168;9.848;2023-05-16T02:14:46;6.13;;;5.72;;
40501;SDS011;29631;49.168;9.848;2023-05-16T02:17:12;7.88;;;7.15;;
40501;SDS011;29631;49.168;9.848;2023-05-16T02:19:37;7.50;;;7.00;;
40501;SDS011;29631;49.168;9.848;2023-05-16T02:22:03;7.82;;;7.13;;
40501;SDS011;29631;49.168;9.848;2023-05-16T02:24:29;8.32;;;7.65;;
40501;SDS011;29631;49.168;9.848;2023-05-16T02:26:55;8.15;;;7.55;;
40501;SDS011;29631;49.168;9.848;2023-05-16T02:29:20;7.80;;;7.30;;
40501;SDS011;29631;49.168;9.848;2023-05-16T02:31:46;8.27;;;7.68;;
40501;SDS011;29631;49.168;9.848;2023-05-16T02:34:12;8.27;;;7.68;;
40501;SDS011;29631;49.168;9.848;2023-05-16T02:36:38;8.63;;;7.93;;
40501;SDS011;29631;49.168;9.848;2023-05-16T02:39:03;8.00;;;7.40;;
40501;SDS011;29631;49.168;9.848;2023-05-16T02:41:29;7.80;;;7.20;;
40501;SDS011;29631;49.168;9.848;2023-05-16T02:43:55;8.55;;;7.95;;
40501;SDS011;29631;49.168;9.848;2023-05-16T02:46:22;9.43;;;8.60;;
40501;SDS011;29631;49.168;9.848;2023-05-16T02:48:55;30.70;;;8.68;;
40501;SDS011;29631;49.168;9.848;2023-05-16T02:51:22;7.40;;;6.90;;
40501;SDS011;29631;49.168;9.848;2023-05-16T02:53:50;6.43;;;6.03;;
40501;SDS011;29631;49.168;9.848;2023-05-16T02:56:17;7.63;;;6.93;;
40501;SDS011;29631;49.168;9.848;2023-05-16T02:58:45;6.10;;;5.70;;
40501;SDS011;29631;49.168;9.848;2023-05-16T03:01:13;6.85;;;6.28;;
40501;SDS011;29631;49.168;9.848;2023-05-16T03:03:39;7.05;;;6.55;;
40501;SDS011;29631;49.168;9.848;2023-05-16T03:06:05;6.90;;;6.40;;
40501;SDS011;29631;49.168;9.848;2023-05-16T03:08:31;6.63;;;6.13;;
40501;SDS011;29631;49.168;9.848;2023-05-16T03:10:58;6.47;;;6.03;;
40501;SDS011;29631;49.168;9.848;2023-05-16T03:13:23;6.80;;;6.40;;
40501;SDS011;29631;49.168;9.848;2023-05-16T03:15:50;7.20;;;6.53;;
40501;SDS011;29631;49.168;9.848;2023-05-16T03:18:16;7.30;;;6.78;;
40501;SDS011;29631;49.168;9.848;2023-05-16T03:20:42;7.15;;;6.57;;
40501;SDS011;29631;49.168;9.848;2023-05-16T03:23:08;6.45;;;5.95;;
40501;SDS011;29631;49.168;9.848;2023-05-16T03:25:34;7.25;;;6.75;;
40501;SDS011;29631;49.168;9.848;2023-05-16T03:28:01;6.95;;;6.38;;
40501;SDS011;29631;49.168;9.848;2023-05-16T03:30:29;7.18;;;6.68;;
40501;SDS011;29631;49.168;9.848;2023-05-16T03:32:55;7.65;;;7.15;;
40501;SDS011;29631;49.168;9.848;2023-05-16T03:35:20;8.30;;;7.70;;
40501;SDS011;29631;49.168;9.848;2023-05-16T03:37:47;8.68;;;7.95;;
40501;SDS011;29631;49.168;9.848;2023-05-16T03:40:12;8.95;;;8.27;;
40501;SDS011;29631;49.168;9.848;2023-05-16T03:42:39;8.63;;;8.02;;
40501;SDS011;29631;49.168;9.848;2023-05-16T03:45:04;9.05;;;8.27;;
40501;SDS011;29631;49.168;9.848;2023-05-16T03:47:31;8.73;;;8.07;;
40501;SDS011;29631;49.168;9.848;2023-05-16T03:49:57;7.72;;;7.22;;
40501;SDS011;29631;49.168;9.848;2023-05-16T03:52:23;8.32;;;7.63;;
40501;SDS011;29631;49.168;9.848;2023-05-16T03:54:49;9.15;;;8.50;;
40501;SDS011;29631;49.168;9.848;2023-05-16T03:57:15;8.57;;;7.97;;
40501;SDS011;29631;49.168;9.848;2023-05-16T03:59:41;8.10;;;7.60;;
40501;SDS011;29631;49.168;9.848;2023-05-16T04:02:06;8.32;;;7.63;;
40501;SDS011;29631;49.168;9.848;2023-05-16T04:04:32;8.10;;;7.50;;
40501;SDS011;29631;49.168;9.848;2023-05-16T04:06:58;8.25;;;7.55;;
40501;SDS011;29631;49.168;9.848;2023-05-16T04:09:25;8.30;;;7.63;;
40501;SDS011;29631;49.168;9.848;2023-05-16T04:11:51;8.00;;;7.40;;
40501;SDS011;29631;49.168;9.848;2023-05-16T04:14:16;8.55;;;7.85;;
40501;SDS011;29631;49.168;9.848;2023-05-16T04:16:42;8.73;;;8.13;;
40501;SDS011;29631;49.168;9.848;2023-05-16T04:19:08;8.18;;;7.47;;
40501;SDS011;29631;49.168;9.848;2023-05-16T04:21:34;8.90;;;8.10;;
40501;SDS011;29631;49.168;9.848;2023-05-16T04:24:00;7.93;;;7.32;;
40501;SDS011;29631;49.168;9.848;2023-05-16T04:26:26;8.82;;;8.13;;
40501;SDS011;29631;49.168;9.848;2023-05-16T04:28:52;8.38;;;7.78;;
40501;SDS011;29631;49.168;9.848;2023-05-16T04:31:18;8.50;;;7.90;;
40501;SDS011;29631;49.168;9.848;2023-05-16T04:33:44;9.10;;;8.30;;
40501;SDS011;29631;49.168;9.848;2023-05-16T04:36:10;9.02;;;8.32;;
40501;SDS011;29631;49.168;9.848;2023-05-16T04:38:36;9.00;;;8.20;;
40501;SDS011;29631;49.168;9.848;2023-05-16T04:41:02;8.88;;;8.18;;
40501;SDS011;29631;49.168;9.848;2023-05-16T04:43:27;8.85;;;8.25;;
40501;SDS011;29631;49.168;9.848;2023-05-16T04:45:54;8.52;;;7.90;;
40501;SDS011;29631;49.168;9.848;2023-05-16T04:48:22;8.32;;;7.72;;
40501;SDS011;29631;49.168;9.848;2023-05-16T04:50:48;8.43;;;7.82;;
40501;SDS011;29631;49.168;9.848;2023-05-16T04:53:14;9.27;;;8.43;;
40501;SDS011;29631;49.168;9.848;2023-05-16T04:55:39;9.15;;;8.43;;
40501;SDS011;29631;49.168;9.848;2023-05-16T04:58:05;9.57;;;8.77;;
40501;SDS011;29631;49.168;9.848;2023-05-16T05:00:32;9.35;;;8.65;;
40501;SDS011;29631;49.168;9.848;2023-05-16T05:02:58;9.90;;;9.02;;
40501;SDS011;29631;49.168;9.848;2023-05-16T05:05:23;9.45;;;8.63;;
40501;SDS011;29631;49.168;9.848;2023-05-16T05:07:49;10.20;;;9.40;;
40501;SDS011;29631;49.168;9.848;2023-05-16T05:10:15;9.48;;;8.77;;
40501;SDS011;29631;49.168;9.848;2023-05-16T05:12:41;9.15;;;8.45;;
40501;SDS011;29631;49.168;9.848;2023-05-16T05:15:06;10.10;;;9.25;;
40501;SDS011;29631;49.168;9.848;2023-05-16T05:17:33;9.57;;;8.88;;
40501;SDS011;29631;49.168;9.848;2023-05-16T05:19:58;9.68;;;8.98;;
40501;SDS011;29631;49.168;9.848;2023-05-16T05:22:24;9.52;;;8.75;;
40501;SDS011;29631;49.168;9.848;2023-05-16T05:24:50;10.07;;;9.13;;
40501;SDS011;29631;49.168;9.848;2023-05-16T05:27:16;9.65;;;8.90;;
40501;SDS011;29631;49.168;9.848;2023-05-16T05:29:41;9.80;;;9.05;;
40501;SDS011;29631;49.168;9.848;2023-05-16T05:32:07;9.75;;;8.95;;
40501;SDS011;29631;49.168;9.848;2023-05-16T05:34:33;9.48;;;8.68;;
40501;SDS011;29631;49.168;9.848;2023-05-16T05:36:59;9.30;;;8.60;;
40501;SDS011;29631;49.168;9.848;2023-05-16T05:39:24;8.70;;;8.10;;
40501;SDS011;29631;49.168;9.848;2023-05-16T05:41:50;9.50;;;8.70;;
40501;SDS011;29631;49.168;9.848;2023-05-16T05:44:16;9.27;;;8.40;;
40501;SDS011;29631;49.168;9.848;2023-05-16T05:46:42;9.13;;;8.45;;
40501;SDS011;29631;49.168;9.848;2023-05-16T05:49:08;9.45;;;8.75;;
40501;SDS011;29631;49.168;9.848;2023-05-16T05:51:34;9.85;;;8.95;;
40501;SDS011;29631;49.168;9.848;2023-05-16T05:54:00;10.32;;;9.55;;
40501;SDS011;29631;49.168;9.848;2023-05-16T05:56:26;10.98;;;9.40;;
40501;SDS011;29631;49.168;9.848;2023-05-16T05:58:52;9.15;;;8.45;;
40501;SDS011;29631;49.168;9.848;2023-05-16T06:01:18;9.18;;;8.38;;
40501;SDS011;29631;49.168;9.848;2023-05-16T06:03:47;8.52;;;7.93;;
40501;SDS011;29631;49.168;9.848;2023-05-16T06:06:13;8.85;;;8.25;;
40501;SDS011;29631;49.168;9.848;2023-05-16T06:08:39;8.57;;;7.95;;
40501;SDS011;29631;49.168;9.848;2023-05-16T06:11:05;8.40;;;7.72;;
40501;SDS011;29631;49.168;9.848;2023-05-16T06:13:31;8.57;;;7.78;;
40501;SDS011;29631;49.168;9.848;2023-05-16T06:15:57;9.10;;;8.15;;
40501;SDS011;29631;49.168;9.848;2023-05-16T06:18:23;8.18;;;7.57;;
40501;SDS011;29631;49.168;9.848;2023-05-16T06:20:48;9.00;;;8.02;;
40501;SDS011;29631;49.168;9.848;2023-05-16T06:23:14;8.43;;;7.72;;
40501;SDS011;29631;49.168;9.848;2023-05-16T06:25:40;7.78;;;7.13;;
40501;SDS011;29631;49.168;9.848;2023-05-16T06:28:06;8.48;;;7.82;;
40501;SDS011;29631;49.168;9.848;2023-05-16T06:30:33;8.07;;;7.28;;
40501;SDS011;29631;49.168;9.848;2023-05-16T06:32:59;8.00;;;7.30;;
40501;SDS011;29631;49.168;9.848;2023-05-16T06:35:24;8.07;;;7.47;;
40501;SDS011;29631;49.168;9.848;2023-05-16T06:37:50;7.90;;;7.20;;
40501;SDS011;29631;49.168;9.848;2023-05-16T06:40:16;7.07;;;6.57;;
40501;SDS011;29631;49.168;9.848;2023-05-16T06:42:41;7.75;;;7.15;;
40501;SDS011;29631;49.168;9.848;2023-05-16T06:45:07;7.20;;;6.70;;
40501;SDS011;29631;49.168;9.848;2023-05-16T06:47:34;7.60;;;7.05;;
40501;SDS011;29631;49.168;9.848;2023-05-16T06:50:00;7.07;;;6.57;;
40501;SDS011;29631;49.168;9.848;2023-05-16T06:52:26;7.50;;;6.90;;
40501;SDS011;29631;49.168;9.848;2023-05-16T06:54:52;7.53;;;6.93;;
40501;SDS011;29631;49.168;9.848;2023-05-16T06:57:18;6.75;;;6.25;;
40501;SDS011;29631;49.168;9.848;2023-05-16T06:59:43;7.18;;;6.68;;
40501;SDS011;29631;49.168;9.848;2023-05-16T07:02:09;7.63;;;7.03;;
40501;SDS011;29631;49.168;9.848;2023-05-16T07:04:35;7.15;;;6.60;;
40501;SDS011;29631;49.168;9.848;2023-05-16T07:07:02;6.60;;;6.13;;
40501;SDS011;29631;49.168;9.848;2023-05-16T07:09:28;6.78;;;6.28;;
40501;SDS011;29631;49.168;9.848;2023-05-16T07:11:55;7.47;;;6.78;;
40501;SDS011;29631;49.168;9.848;2023-05-16T07:14:20;7.45;;;6.88;;
40501;SDS011;29631;49.168;9.848;2023-05-16T07:16:46;8.10;;;6.80;;
40501;SDS011;29631;49.168;9.848;2023-05-16T07:19:12;7.28;;;6.68;;
40501;SDS011;29631;49.168;9.848;2023-05-16T07:21:38;6.78;;;6.28;;
40501;SDS011;29631;49.168;9.848;2023-05-16T07:24:03;7.07;;;6.57;;
40501;SDS011;29631;49.168;9.848;2023-05-16T07:26:30;6.72;;;6.30;;
40501;SDS011;29631;49.168;9.848;2023-05-16T07:28:56;6.32;;;5.93;;
40501;SDS011;29631;49.168;9.848;2023-05-16T07:31:22;6.90;;;6.40;;
40501;SDS011;29631;49.168;9.848;2023-05-16T07:33:48;6.30;;;5.90;;
40501;SDS011;29631;49.168;9.848;2023-05-16T07:36:15;7.10;;;6.55;;
40501;SDS011;29631;49.168;9.848;2023-05-16T07:38:41;7.35;;;6.75;;
40501;SDS011;29631;49.168;9.848;2023-05-16T07:41:07;7.07;;;6.47;;
40501;SDS011;29631;49.168;9.848;2023-05-16T07:43:33;6.85;;;6.45;;
40501;SDS011;29631;49.168;9.848;2023-05-16T07:45:59;7.07;;;6.60;;
40501;SDS011;29631;49.168;9.848;2023-05-16T07:48:26;6.40;;;5.97;;
40501;SDS011;29631;49.168;9.848;2023-05-16T07:50:52;7.13;;;6.65;;
40501;SDS011;29631;49.168;9.848;2023-05-16T07:53:19;6.78;;;6.30;;
40501;SDS011;29631;49.168;9.848;2023-05-16T07:55:46;7.18;;;6.50;;
40501;SDS011;29631;49.168;9.848;2023-05-16T07:58:13;7.63;;;6.78;;
40501;SDS011;29631;49.168;9.848;2023-05-16T08:00:38;7.00;;;6.50;;
40501;SDS011;29631;49.168;9.848;2023-05-16T08:03:04;6.82;;;6.22;;
40501;SDS011;29631;49.168;9.848;2023-05-16T08:05:30;7.15;;;6.65;;
40501;SDS011;29631;49.168;9.848;2023-05-16T08:07:56;8.05;;;7.45;;
40501;SDS011;29631;49.168;9.848;2023-05-16T08:10:22;8.23;;;7.53;;
40501;SDS011;29631;49.168;9.848;2023-05-16T08:12:48;7.53;;;7.00;;
40501;SDS011;29631;49.168;9.848;2023-05-16T08:15:14;7.05;;;6.55;;
40501;SDS011;29631;49.168;9.848;2023-05-16T08:17:40;7.13;;;6.63;;
40501;SDS011;29631;49.168;9.848;2023-05-16T08:20:06;8.18;;;7.57;;
40501;SDS011;29631;49.168;9.848;2023-05-16T08:22:32;7.70;;;7.13;;
40501;SDS011;29631;49.168;9.848;2023-05-16T08:24:58;7.78;;;7.20;;
40501;SDS011;29631;49.168;9.848;2023-05-16T08:27:25;7.75;;;7.25;;
40501;SDS011;29631;49.168;9.848;2023-05-16T08:29:51;7.72;;;7.15;;
40501;SDS011;29631;49.168;9.848;2023-05-16T08:32:17;7.75;;;7.15;;
40501;SDS011;29631;49.168;9.848;2023-05-16T08:34:43;8.38;;;7.78;;
40501;SDS011;29631;49.168;9.848;2023-05-16T08:37:09;8.27;;;7.68;;
40501;SDS011;29631;49.168;9.848;2023-05-16T08:39:37;8.15;;;7.55;;
40501;SDS011;29631;49.168;9.848;2023-05-16T08:42:03;7.55;;;7.00;;
40501;SDS011;29631;49.168;9.848;2023-05-16T08:44:29;8.63;;;8.02;;
40501;SDS011;29631;49.168;9.848;2023-05-16T08:46:55;8.52;;;7.82;;
40501;SDS011;29631;49.168;9.848;2023-05-16T08:49:27;8.10;;;7.40;;
40501;SDS011;29631;49.168;9.848;2023-05-16T08:51:55;8.40;;;7.60;;
40501;SDS011;29631;49.168;9.848;2023-05-16T08:54:23;7.82;;;7.22;;
40501;SDS011;29631;49.168;9.848;2023-05-16T08:56:49;7.50;;;6.95;;
40501;SDS011;29631;49.168;9.848;2023-05-16T08:59:16;8.15;;;7.47;;
40501;SDS011;29631;49.168;9.848;2023-05-16T09:01:43;7.60;;;7.00;;
40501;SDS011;29631;49.168;9.848;2023-05-16T09:04:08;7.97;;;7.38;;
40501;SDS011;29631;49.168;9.848;2023-05-16T09:06:35;7.47;;;6.97;;
40501;SDS011;29631;49.168;9.848;2023-05-16T09:09:01;7.00;;;6.50;;
40501;SDS011;29631;49.168;9.848;2023-05-16T09:11:28;7.25;;;6.75;;
40501;SDS011;29631;49.168;9.848;2023-05-16T09:13:54;7.38;;;6.78;;
40501;SDS011;29631;49.168;9.848;2023-05-16T09:16:20;7.22;;;6.72;;
40501;SDS011;29631;49.168;9.848;2023-05-16T09:18:51;7.82;;;7.10;;
40501;SDS011;29631;49.168;9.848;2023-05-16T09:21:20;7.47;;;6.97;;
40501;SDS011;29631;49.168;9.848;2023-05-16T09:23:52;7.25;;;6.75;;
40501;SDS011;29631;49.168;9.848;2023-05-16T09:26:18;7.13;;;6.63;;
40501;SDS011;29631;49.168;9.848;2023-05-16T09:28:43;7.05;;;6.45;;
40501;SDS011;29631;49.168;9.848;2023-05-16T09:31:19;7.40;;;6.90;;
40501;SDS011;29631;49.168;9.848;2023-05-16T09:33:52;7.05;;;6.55;;
40501;SDS011;29631;49.168;9.848;2023-05-16T09:36:20;6.57;;;6.07;;
40501;SDS011;29631;49.168;9.848;2023-05-16T09:38:46;6.65;;;6.18;;
40501;SDS011;29631;49.168;9.848;2023-05-16T09:41:13;6.95;;;6.40;;
40501;SDS011;29631;49.168;9.848;2023-05-16T09:43:39;7.93;;;7.30;;
40501;SDS011;29631;49.168;9.848;2023-05-16T09:46:07;7.18;;;6.57;;
40501;SDS011;29631;49.168;9.848;2023-05-16T09:48:40;6.75;;;6.35;;
40501;SDS011;29631;49.168;9.848;2023-05-16T09:51:10;6.93;;;6.43;;
40501;SDS011;29631;49.168;9.848;2023-05-16T09:53:36;7.35;;;6.75;;
40501;SDS011;29631;49.168;9.848;2023-05-16T09:58:35;7.65;;;7.15;;
40501;SDS011;29631;49.168;9.848;2023-05-16T10:01:05;7.55;;;6.95;;
40501;SDS011;29631;49.168;9.848;2023-05-16T10:03:36;7.40;;;6.90;;
40501;SDS011;29631;49.168;9.848;2023-05-16T10:06:04;7.68;;;7.07;;
40501;SDS011;29631;49.168;9.848;2023-05-16T10:08:32;8.05;;;7.20;;
40501;SDS011;29631;49.168;9.848;2023-05-16T10:11:01;8.10;;;7.45;;
40501;SDS011;29631;49.168;9.848;2023-05-16T10:13:29;8.55;;;7.85;;
40501;SDS011;29631;49.168;9.848;2023-05-16T10:16:01;7.60;;;7.10;;
40501;SDS011;29631;49.168;9.848;2023-05-16T10:18:38;7.68;;;7.18;;
40501;SDS011;29631;49.168;9.848;2023-05-16T10:21:06;7.70;;;7.13;;
40501;SDS011;29631;49.168;9.848;2023-05-16T10:23:39;8.32;;;7.72;;
40501;SDS011;29631;49.168;9.848;2023-05-16T10:26:07;8.07;;;7.40;;
40501;SDS011;29631;49.168;9.848;2023-05-16T10:28:35;8.25;;;7.45;;
40501;SDS011;29631;49.168;9.848;2023-05-16T10:31:01;8.55;;;7.85;;
40501;SDS011;29631;49.168;9.848;2023-05-16T10:33:28;8.20;;;7.50;;
40501;SDS011;29631;49.168;9.848;2023-05-16T10:35:54;7.88;;;7.28;;
40501;SDS011;29631;49.168;9.848;2023-05-16T10:38:20;8.27;;;7.68;;
40501;SDS011;29631;49.168;9.848;2023-05-16T10:40:48;8.35;;;7.75;;
40501;SDS011;29631;49.168;9.848;2023-05-16T10:43:22;7.95;;;7.35;;
40501;SDS011;29631;49.168;9.848;2023-05-16T10:45:54;7.30;;;6.70;;
40501;SDS011;29631;49.168;9.848;2023-05-16T10:51:02;7.30;;;6.72;;
40501;SDS011;29631;49.168;9.848;2023-05-16T10:53:51;7.13;;;6.63;;
40501;SDS011;29631;49.168;9.848;2023-05-16T10:56:22;7.57;;;6.97;;
40501;SDS011;29631;49.168;9.848;2023-05-16T10:58:49;7.45;;;6.85;;
40501;SDS011;29631;49.168;9.848;2023-05-16T11:06:21;7.72;;;7.13;;
40501;SDS011;29631;49.168;9.848;2023-05-16T11:09:06;6.78;;;6.28;;
40501;SDS011;29631;49.168;9.848;2023-05-16T11:11:58;7.15;;;6.70;;
40501;SDS011;29631;49.168;9.848;2023-05-16T11:14:28;6.85;;;6.40;;
40501;SDS011;29631;49.168;9.848;2023-05-16T11:19:46;7.30;;;6.80;;
40501;SDS011;29631;49.168;9.848;2023-05-16T11:25:05;7.22;;;6.72;;
40501;SDS011;29631;49.168;9.848;2023-05-16T11:27:34;6.43;;;6.03;;
40501;SDS011;29631;49.168;9.848;2023-05-16T11:32:34;6.90;;;6.40;;
40501;SDS011;29631;49.168;9.848;2023-05-16T11:35:05;6.95;;;6.45;;
40501;SDS011;29631;49.168;9.848;2023-05-16T11:37:34;6.82;;;6.32;;
40501;SDS011;29631;49.168;9.848;2023-05-16T11:40:04;7.50;;;6.88;;
40501;SDS011;29631;49.168;9.848;2023-05-16T11:42:33;7.65;;;7.05;;
40501;SDS011;29631;49.168;9.848;2023-05-16T11:47:32;8.13;;;7.43;;
40501;SDS011;29631;49.168;9.848;2023-05-16T11:50:02;6.95;;;6.35;;
40501;SDS011;29631;49.168;9.848;2023-05-16T11:52:31;7.75;;;6.75;;
40501;SDS011;29631;49.168;9.848;2023-05-16T11:54:57;7.05;;;6.55;;
40501;SDS011;29631;49.168;9.848;2023-05-16T11:57:25;6.70;;;6.20;;
40501;SDS011;29631;49.168;9.848;2023-05-16T11:59:52;6.35;;;5.85;;
40501;SDS011;29631;49.168;9.848;2023-05-16T12:02:18;7.45;;;6.95;;
40501;SDS011;29631;49.168;9.848;2023-05-16T12:04:48;6.45;;;6.05;;
40501;SDS011;29631;49.168;9.848;2023-05-16T12:07:14;7.05;;;6.55;;
40501;SDS011;29631;49.168;9.848;2023-05-16T12:09:40;6.40;;;6.00;;
40501;SDS011;29631;49.168;9.848;2023-05-16T12:12:06;7.28;;;6.70;;
40501;SDS011;29631;49.168;9.848;2023-05-16T12:14:32;6.75;;;6.25;;
40501;SDS011;29631;49.168;9.848;2023-05-16T12:16:58;6.60;;;6.10;;
40501;SDS011;29631;49.168;9.848;2023-05-16T12:19:24;7.57;;;6.63;;
40501;SDS011;29631;49.168;9.848;2023-05-16T12:21:53;6.72;;;6.22;;
40501;SDS011;29631;49.168;9.848;2023-05-16T12:24:19;6.45;;;5.95;;
40501;SDS011;29631;49.168;9.848;2023-05-16T12:26:45;6.22;;;5.75;;
40501;SDS011;29631;49.168;9.848;2023-05-16T12:29:11;6.45;;;5.97;;
40501;SDS011;29631;49.168;9.848;2023-05-16T12:31:38;6.43;;;5.93;;
40501;SDS011;29631;49.168;9.848;2023-05-16T12:34:13;6.28;;;5.78;;
40501;SDS011;29631;49.168;9.848;2023-05-16T12:36:44;6.28;;;5.78;;
40501;SDS011;29631;49.168;9.848;2023-05-16T12:39:14;5.57;;;5.18;;
40501;SDS011;29631;49.168;9.848;2023-05-16T12:41:40;6.15;;;5.65;;
40501;SDS011;29631;49.168;9.848;2023-05-16T12:44:10;5.43;;;5.03;;
40501;SDS011;29631;49.168;9.848;2023-05-16T12:47:00;4.75;;;4.45;;
40501;SDS011;29631;49.168;9.848;2023-05-16T12:49:26;5.45;;;5.05;;
40501;SDS011;29631;49.168;9.848;2023-05-16T12:51:53;4.32;;;4.03;;
40501;SDS011;29631;49.168;9.848;2023-05-16T12:54:21;3.88;;;3.67;;
40501;SDS011;29631;49.168;9.848;2023-05-16T12:56:47;4.10;;;3.85;;
40501;SDS011;29631;49.168;9.848;2023-05-16T12:59:13;3.90;;;3.70;;
40501;SDS011;29631;49.168;9.848;2023-05-16T13:01:40;4.80;;;3.83;;
40501;SDS011;29631;49.168;9.848;2023-05-16T13:04:06;4.00;;;3.67;;
40501;SDS011;29631;49.168;9.848;2023-05-16T13:06:32;4.00;;;3.47;;
40501;SDS011;29631;49.168;9.848;2023-05-16T13:08:58;3.50;;;3.30;;
40501;SDS011;29631;49.168;9.848;2023-05-16T13:11:24;3.75;;;3.55;;
40501;SDS011;29631;49.168;9.848;2023-05-16T13:13:50;3.70;;;3.47;;
40501;SDS011;29631;49.168;9.848;2023-05-16T13:16:17;3.60;;;3.40;;
40501;SDS011;29631;49.168;9.848;2023-05-16T13:18:42;3.40;;;3.20;;
40501;SDS011;29631;49.168;9.848;2023-05-16T13:21:08;3.15;;;2.95;;
40501;SDS011;29631;49.168;9.848;2023-05-16T13:23:34;3.20;;;2.97;;
40501;SDS011;29631;49.168;9.848;2023-05-16T13:26:00;3.08;;;2.97;;
40501;SDS011;29631;49.168;9.848;2023-05-16T13:28:25;2.67;;;2.55;;
40501;SDS011;29631;49.168;9.848;2023-05-16T13:30:51;2.63;;;2.53;;
40501;SDS011;29631;49.168;9.848;2023-05-16T13:33:17;2.47;;;2.38;;
40501;SDS011;29631;49.168;9.848;2023-05-16T13:35:43;2.70;;;2.60;;
40501;SDS011;29631;49.168;9.848;2023-05-16T13:38:09;2.28;;;2.17;;
40501;SDS011;29631;49.168;9.848;2023-05-16T13:40:35;2.05;;;2.03;;
40501;SDS011;29631;49.168;9.848;2023-05-16T13:43:00;1.85;;;1.83;;
40501;SDS011;29631;49.168;9.848;2023-05-16T13:45:27;1.65;;;1.60;;
40501;SDS011;29631;49.168;9.848;2023-05-16T13:47:53;2.10;;;2.00;;
40501;SDS011;29631;49.168;9.848;2023-05-16T13:50:18;1.83;;;1.80;;
40501;SDS011;29631;49.168;9.848;2023-05-16T13:52:45;1.60;;;1.50;;
40501;SDS011;29631;49.168;9.848;2023-05-16T13:55:12;1.60;;;1.50;;
40501;SDS011;29631;49.168;9.848;2023-05-16T13:57:38;1.90;;;1.77;;
40501;SDS011;29631;49.168;9.848;2023-05-16T14:00:04;1.80;;;1.80;;
40501;SDS011;29631;49.168;9.848;2023-05-16T14:02:40;1.50;;;1.50;;
40501;SDS011;29631;49.168;9.848;2023-05-16T14:05:07;1.90;;;1.80;;
40501;SDS011;29631;49.168;9.848;2023-05-16T14:07:34;1.58;;;1.48;;
40501;SDS011;29631;49.168;9.848;2023-05-16T14:10:00;1.30;;;1.30;;
40501;SDS011;29631;49.168;9.848;2023-05-16T14:12:26;1.60;;;1.60;;
40501;SDS011;29631;49.168;9.848;2023-05-16T14:14:51;1.38;;;1.38;;
40501;SDS011;29631;49.168;9.848;2023-05-16T14:17:18;1.85;;;1.75;;
40501;SDS011;29631;49.168;9.848;2023-05-16T14:19:44;1.55;;;1.50;;
40501;SDS011;29631;49.168;9.848;2023-05-16T14:22:10;1.38;;;1.38;;
40501;SDS011;29631;49.168;9.848;2023-05-16T14:24:36;1.70;;;1.60;;
40501;SDS011;29631;49.168;9.848;2023-05-16T14:27:02;1.73;;;1.70;;
40501;SDS011;29631;49.168;9.848;2023-05-16T14:29:28;1.83;;;1.30;;
40501;SDS011;29631;49.168;9.848;2023-05-16T14:31:53;1.35;;;1.35;;
40501;SDS011;29631;49.168;9.848;2023-05-16T14:34:20;1.83;;;1.27;;
40501;SDS011;29631;49.168;9.848;2023-05-16T14:36:46;1.30;;;1.25;;
40501;SDS011;29631;49.168;9.848;2023-05-16T14:39:12;1.58;;;1.50;;
40501;SDS011;29631;49.168;9.848;2023-05-16T14:41:38;1.45;;;1.45;;
40501;SDS011;29631;49.168;9.848;2023-05-16T14:44:03;1.50;;;1.40;;
40501;SDS011;29631;49.168;9.848;2023-05-16T14:46:29;1.48;;;1.48;;
40501;SDS011;29631;49.168;9.848;2023-05-16T14:48:55;1.65;;;1.40;;
40501;SDS011;29631;49.168;9.848;2023-05-16T14:51:21;1.85;;;1.38;;
40501;SDS011;29631;49.168;9.848;2023-05-16T14:53:47;1.65;;;1.55;;
40501;SDS011;29631;49.168;9.848;2023-05-16T14:56:12;2.50;;;1.63;;
40501;SDS011;29631;49.168;9.848;2023-05-16T14:58:38;1.40;;;1.30;;
40501;SDS011;29631;49.168;9.848;2023-05-16T15:01:04;1.77;;;1.70;;
40501;SDS011;29631;49.168;9.848;2023-05-16T15:03:30;1.85;;;1.75;;
40501;SDS011;29631;49.168;9.848;2023-05-16T15:05:57;1.80;;;1.70;;
40501;SDS011;29631;49.168;9.848;2023-05-16T15:08:23;1.77;;;1.67;;
40501;SDS011;29631;49.168;9.848;2023-05-16T15:10:49;2.03;;;1.92;;
40501;SDS011;29631;49.168;9.848;2023-05-16T15:13:14;1.33;;;1.30;;
40501;SDS011;29631;49.168;9.848;2023-05-16T15:15:40;2.00;;;1.50;;
40501;SDS011;29631;49.168;9.848;2023-05-16T15:18:06;3.80;;;1.45;;